Terminal Aerodrome Forecast
Issued by NWS Shreveport, LA

Home | Current Version | Previous Version | Text Only | Print | Product List | Glossary On
Versions: 1 2 3 4 5 6 7 8 9 10 11 12 13
000
FTUS44 KSHV 281700 CCA
TAFLFK
TAF COR
KLFK 281742Z 2818/2918 16007KT P6SM SKC
     FM290000 13005KT P6SM SKC
     FM290900 17003KT P6SM SKC
     FM291200 19003KT 5SM BR SCT100 SCT250
     FM291500 25004KT 4SM BR OVC001=

USA.gov is the U.S. government's official web portal to all federal, state and local government web resources and services.